Time,TemperatureF,DewpointF,PressureIn,WindDirection,WindDirectionDegrees,WindSpeedMPH,WindSpeedGustMPH,Humidity,HourlyPrecipIn,Conditions,Clouds,dailyrainin,SoftwareType,DateUTC
2013-05-13 00:01:00,52.3,42.5,30.02,West,266,0.0,0.0,69,0.00,,SCT100,0.00,VWS V14.01,2013-05-13 04:01:00,
2013-05-13 00:05:00,52.1,41.1,30.02,West,266,0.0,0.0,66,0.00,,SCT100,0.00,VWS V14.01,2013-05-13 04:05:00,
2013-05-13 00:10:00,52.2,42.3,30.02,West,266,0.0,0.0,69,0.00,,SCT100,0.00,VWS V14.01,2013-05-13 04:10:00,
2013-05-13 00:15:00,52.4,39.8,30.02,West,266,0.0,0.0,62,0.00,,SCT100,0.00,VWS V14.01,2013-05-13 04:15:00,
2013-05-13 00:20:00,52.5,41.9,30.03,West,266,0.0,0.0,67,0.00,,SCT100,0.00,VWS V14.01,2013-05-13 04:20:00,
2013-05-13 00:30:00,52.3,41.3,30.03,West,266,0.0,0.0,66,0.00,,SCT100,0.00,VWS V14.01,2013-05-13 04:30:00,
2013-05-13 00:35:00,52.2,41.6,30.04,West,266,0.0,0.0,67,0.00,,SCT100,0.00,VWS V14.01,2013-05-13 04:35:00,
2013-05-13 00:40:00,52.0,42.2,30.04,West,266,0.0,0.0,69,0.00,,SCT100,0.00,VWS V14.01,2013-05-13 04:40:00,
2013-05-13 00:45:00,51.8,44.5,30.04,West,266,0.0,0.0,76,0.00,,SCT100,0.00,VWS V14.01,2013-05-13 04:45:00,
2013-05-13 00:50:00,51.4,44.1,30.04,West,266,0.0,0.0,76,0.00,,SCT100,0.00,VWS V14.01,2013-05-13 04:50:00,
2013-05-13 00:55:00,51.2,43.2,30.04,West,266,0.0,0.0,74,0.00,,SCT100,0.00,VWS V14.01,2013-05-13 04:55:00,
2013-05-13 01:00:00,51.0,43.7,30.04,West,266,0.0,0.0,76,0.00,,SCT100,0.00,VWS V14.01,2013-05-13 05:00:00,
2013-05-13 01:10:00,50.7,42.7,30.04,West,266,0.0,0.0,74,0.00,,SCT100,0.00,VWS V14.01,2013-05-13 05:10:00,
2013-05-13 01:15:00,50.4,42.8,30.04,West,266,0.0,0.0,75,0.00,,SCT100,0.00,VWS V14.01,2013-05-13 05:15:00,
2013-05-13 01:20:00,50.3,44.0,30.04,West,266,0.0,0.0,79,0.00,,SCT100,0.00,VWS V14.01,2013-05-13 05:20:00,
2013-05-13 01:25:00,50.1,43.2,30.04,West,266,0.0,0.0,77,0.00,,SCT100,0.00,VWS V14.01,2013-05-13 05:25:00,
2013-05-13 01:30:00,49.9,43.3,30.04,West,266,0.0,0.0,78,0.00,,SCT100,0.00,VWS V14.01,2013-05-13 05:30:00,
2013-05-13 01:35:00,49.8,43.9,30.04,West,266,0.0,0.0,80,0.00,,SCT100,0.00,VWS V14.01,2013-05-13 05:35:00,
2013-05-13 01:40:00,49.7,44.4,30.04,West,266,0.0,0.0,82,0.00,,SCT100,0.00,VWS V14.01,2013-05-13 05:40:00,
2013-05-13 01:45:00,49.4,42.8,30.04,West,266,0.0,0.0,78,0.00,,SCT100,0.00,VWS V14.01,2013-05-13 05:45:00,
2013-05-13 01:50:00,49.4,43.5,30.04,West,266,0.0,0.0,80,0.00,,SCT100,0.00,VWS V14.01,2013-05-13 05:50:00,
2013-05-13 01:55:00,49.4,43.5,30.04,West,266,0.0,0.0,80,0.00,,SCT100,0.00,VWS V14.01,2013-05-13 05:55:00,
2013-05-13 02:00:00,49.4,43.8,30.04,West,266,0.0,0.0,81,0.00,,SCT100,0.00,VWS V14.01,2013-05-13 06:00:00,
2013-05-13 02:05:00,49.3,44.0,30.04,West,266,0.0,0.0,82,0.00,,SCT100,0.00,VWS V14.01,2013-05-13 06:05:00,
2013-05-13 02:10:00,49.2,44.0,30.04,West,266,0.0,0.0,82,0.00,,SCT100,0.00,VWS V14.01,2013-05-13 06:10:00,
2013-05-13 02:15:00,49.2,44.0,30.05,West,266,0.0,0.0,82,0.00,,SCT100,0.00,VWS V14.01,2013-05-13 06:15:00,
2013-05-13 02:20:00,49.3,44.0,30.05,West,266,0.0,0.0,82,0.00,,SCT100,0.00,VWS V14.01,2013-05-13 06:20:00,
2013-05-13 02:25:00,49.5,44.2,30.04,West,266,0.0,0.0,82,0.00,,SCT100,0.00,VWS V14.01,2013-05-13 06:25:00,
2013-05-13 02:30:00,49.6,44.7,30.04,West,266,0.0,0.0,83,0.00,,SCT100,0.00,VWS V14.01,2013-05-13 06:30:00,
2013-05-13 02:35:00,49.6,44.0,30.04,West,266,0.0,0.0,81,0.00,,SCT100,0.00,VWS V14.01,2013-05-13 06:35:00,
2013-05-13 02:40:00,49.6,43.0,30.05,West,266,0.0,0.0,78,0.00,,SCT100,0.00,VWS V14.01,2013-05-13 06:40:00,
2013-05-13 02:45:00,49.8,43.9,30.05,West,266,0.0,0.0,80,0.00,,SCT100,0.00,VWS V14.01,2013-05-13 06:45:00,
2013-05-13 02:50:00,50.0,44.1,30.04,West,266,0.0,0.0,80,0.00,,SCT100,0.00,VWS V14.01,2013-05-13 06:50:00,
2013-05-13 02:55:00,50.1,44.8,30.05,West,266,0.0,0.0,82,0.00,,BKN100,0.00,VWS V14.01,2013-05-13 06:55:00,
2013-05-13 03:00:00,50.0,44.1,30.05,West,266,0.0,0.0,80,0.00,,BKN100,0.00,VWS V14.01,2013-05-13 07:00:00,
2013-05-13 03:05:00,50.0,44.1,30.05,West,266,0.0,0.0,80,0.00,,BKN100,0.00,VWS V14.01,2013-05-13 07:05:00,
2013-05-13 03:10:00,49.9,43.7,30.05,West,266,0.0,0.0,79,0.00,,BKN100,0.00,VWS V14.01,2013-05-13 07:10:00,
2013-05-13 03:15:00,49.9,44.3,30.06,West,266,0.0,0.0,81,0.00,,BKN100,0.00,VWS V14.01,2013-05-13 07:15:00,
2013-05-13 03:20:00,49.9,44.0,30.06,West,266,0.0,0.0,80,0.00,,BKN100,0.00,VWS V14.01,2013-05-13 07:20:00,
2013-05-13 03:25:00,49.8,43.6,30.06,West,266,0.0,0.0,79,0.00,,BKN100,0.00,VWS V14.01,2013-05-13 07:25:00,
2013-05-13 03:30:00,49.8,43.9,30.06,West,266,0.0,0.0,80,0.00,,BKN100,0.00,VWS V14.01,2013-05-13 07:30:00,
2013-05-13 03:35:00,49.7,43.8,30.06,West,266,0.0,0.0,80,0.00,,BKN100,0.00,VWS V14.01,2013-05-13 07:35:00,
2013-05-13 03:40:00,49.7,43.8,30.06,West,266,0.0,0.0,80,0.00,,BKN100,0.00,VWS V14.01,2013-05-13 07:40:00,
2013-05-13 03:45:00,49.6,44.0,30.06,West,266,0.0,0.0,81,0.00,,BKN100,0.00,VWS V14.01,2013-05-13 07:45:00,
2013-05-13 03:50:00,49.5,43.6,30.06,West,266,0.0,0.0,80,0.00,,BKN100,0.00,VWS V14.01,2013-05-13 07:50:00,
2013-05-13 03:55:00,49.4,43.2,30.06,West,266,0.0,0.0,79,0.00,,BKN100,0.00,VWS V14.01,2013-05-13 07:55:00,
2013-05-13 04:00:00,49.3,43.1,30.06,West,266,0.0,0.0,79,0.00,,BKN100,0.00,VWS V14.01,2013-05-13 08:00:00,
2013-05-13 04:05:00,49.2,44.0,30.06,West,266,0.0,0.0,82,0.00,,BKN100,0.00,VWS V14.01,2013-05-13 08:05:00,
2013-05-13 04:15:00,49.1,44.2,30.06,West,266,0.0,0.0,83,0.00,,BKN100,0.00,VWS V14.01,2013-05-13 08:15:00,
2013-05-13 04:20:00,49.0,44.1,30.06,West,266,0.0,0.0,83,0.00,,BKN100,0.00,VWS V14.01,2013-05-13 08:20:00,
2013-05-13 04:25:00,48.9,44.0,30.06,West,266,0.0,0.0,83,0.00,,BKN100,0.00,VWS V14.01,2013-05-13 08:25:00,
2013-05-13 04:30:00,48.7,43.8,30.06,West,266,0.0,0.0,83,0.00,,BKN100,0.00,VWS V14.01,2013-05-13 08:30:00,
2013-05-13 04:35:00,48.5,43.6,30.06,West,266,0.0,0.0,83,0.00,,BKN100,0.00,VWS V14.01,2013-05-13 08:35:00,
2013-05-13 04:40:00,48.2,43.3,30.07,West,266,0.0,0.0,83,0.00,,BKN100,0.00,VWS V14.01,2013-05-13 08:40:00,
2013-05-13 04:45:00,47.9,43.0,30.07,West,266,0.0,0.0,83,0.00,,BKN100,0.00,VWS V14.01,2013-05-13 08:45:00,
2013-05-13 04:55:00,47.3,42.7,30.07,West,266,0.0,0.0,84,0.00,,SCT095,0.00,VWS V14.01,2013-05-13 08:55:00,
2013-05-13 05:00:00,47.2,42.9,30.08,West,266,0.0,0.0,85,0.00,,SCT095,0.00,VWS V14.01,2013-05-13 09:00:00,
2013-05-13 05:10:00,46.5,42.5,30.08,West,266,0.0,0.0,86,0.00,,SCT095,0.00,VWS V14.01,2013-05-13 09:10:00,
2013-05-13 05:15:00,46.3,42.3,30.08,West,266,0.0,0.0,86,0.00,,SCT095,0.00,VWS V14.01,2013-05-13 09:15:00,
2013-05-13 05:20:00,46.2,42.5,30.08,West,266,0.0,0.0,87,0.00,,SCT095,0.00,VWS V14.01,2013-05-13 09:20:00,
2013-05-13 05:30:00,45.7,42.4,30.08,West,266,0.0,0.0,88,0.00,,SCT095,0.00,VWS V14.01,2013-05-13 09:30:00,
2013-05-13 05:35:00,45.5,42.2,30.08,West,266,0.0,0.0,88,0.00,,SCT095,0.00,VWS V14.01,2013-05-13 09:35:00,
2013-05-13 05:40:00,45.4,42.1,30.08,West,266,0.0,0.0,88,0.00,,SCT095,0.00,VWS V14.01,2013-05-13 09:40:00,
2013-05-13 05:45:00,45.2,41.9,30.08,West,266,0.0,0.0,88,0.00,,SCT095,0.00,VWS V14.01,2013-05-13 09:45:00,
2013-05-13 05:55:00,44.7,42.0,30.08,West,266,0.0,0.0,90,0.00,,BKN250,0.00,VWS V14.01,2013-05-13 09:55:00,
2013-05-13 06:00:00,44.6,41.8,30.08,West,266,0.0,0.0,90,0.00,,BKN250,0.00,VWS V14.01,2013-05-13 10:00:00,
2013-05-13 06:10:00,44.4,41.7,30.09,West,266,0.0,0.0,90,0.00,,BKN250,0.00,VWS V14.01,2013-05-13 10:10:00,
2013-05-13 06:15:00,44.3,41.8,30.09,West,266,0.0,0.0,91,0.00,,BKN250,0.00,VWS V14.01,2013-05-13 10:15:00,
2013-05-13 06:20:00,44.1,41.4,30.10,West,266,0.0,0.0,90,0.00,,BKN250,0.00,VWS V14.01,2013-05-13 10:20:00,
2013-05-13 06:25:00,44.0,41.3,30.10,West,266,0.0,0.0,90,0.00,,BKN250,0.00,VWS V14.01,2013-05-13 10:25:00,
2013-05-13 06:35:00,44.0,41.8,30.10,West,266,0.0,0.0,92,0.00,,BKN250,0.00,VWS V14.01,2013-05-13 10:35:00,
2013-05-13 06:40:00,44.1,41.9,30.10,West,266,0.0,0.0,92,0.00,,BKN250,0.00,VWS V14.01,2013-05-13 10:40:00,
2013-05-13 06:50:00,44.1,41.9,30.11,West,266,0.0,0.0,92,0.00,,BKN250,0.00,VWS V14.01,2013-05-13 10:50:00,
2013-05-13 06:55:00,44.3,42.1,30.11,West,266,0.0,0.0,92,0.00,,BKN250,0.00,VWS V14.01,2013-05-13 10:55:00,
2013-05-13 07:00:00,44.4,42.2,30.11,SW,231,0.0,0.0,92,0.00,,BKN250,0.00,VWS V14.01,2013-05-13 11:00:00,
2013-05-13 07:05:00,44.6,42.4,30.11,SW,230,0.0,0.0,92,0.00,,BKN250,0.00,VWS V14.01,2013-05-13 11:05:00,
2013-05-13 07:15:00,45.2,43.0,30.12,SW,231,0.0,0.0,92,0.00,,BKN250,0.00,VWS V14.01,2013-05-13 11:15:00,
2013-05-13 07:25:00,45.8,43.6,30.12,SW,231,0.0,0.0,92,0.00,,BKN250,0.00,VWS V14.01,2013-05-13 11:25:00,
2013-05-13 07:30:00,46.2,44.0,30.12,SW,231,0.0,0.0,92,0.00,,BKN250,0.00,VWS V14.01,2013-05-13 11:30:00,
2013-05-13 07:35:00,46.6,44.1,30.12,SW,231,0.0,0.0,91,0.00,,BKN250,0.00,VWS V14.01,2013-05-13 11:35:00,
2013-05-13 07:40:00,47.0,43.6,30.12,SW,231,0.0,0.0,88,0.00,,BKN250,0.00,VWS V14.01,2013-05-13 11:40:00,
2013-05-13 07:50:00,48.0,42.1,30.13,SW,231,0.0,0.0,80,0.00,,BKN250,0.00,VWS V14.01,2013-05-13 11:50:00,
2013-05-13 08:00:00,49.1,42.9,30.13,SW,231,0.0,0.0,79,0.00,,BKN250,0.00,VWS V14.01,2013-05-13 12:00:00,
2013-05-13 08:05:00,49.6,43.0,30.13,SW,231,0.0,0.0,78,0.00,,BKN250,0.00,VWS V14.01,2013-05-13 12:05:00,
2013-05-13 08:10:00,50.2,42.9,30.13,SW,231,0.0,0.0,76,0.00,,BKN250,0.00,VWS V14.01,2013-05-13 12:10:00,
2013-05-13 08:15:00,50.6,42.3,30.14,SW,231,0.0,0.0,73,0.00,,BKN250,0.00,VWS V14.01,2013-05-13 12:15:00,
2013-05-13 08:20:00,51.2,42.9,30.14,SW,231,0.0,0.0,73,0.00,,BKN250,0.00,VWS V14.01,2013-05-13 12:20:00,
2013-05-13 08:25:00,51.7,43.3,30.14,SW,231,0.0,0.0,73,0.00,,BKN250,0.00,VWS V14.01,2013-05-13 12:25:00,
2013-05-13 08:30:00,52.0,42.5,30.14,SW,231,0.0,0.0,70,0.00,,BKN250,0.00,VWS V14.01,2013-05-13 12:30:00,
2013-05-13 08:35:00,52.4,43.7,30.14,SW,230,0.0,0.0,72,0.00,,BKN250,0.00,VWS V14.01,2013-05-13 12:35:00,
2013-05-13 08:40:00,52.9,43.4,30.14,SW,231,0.0,0.0,70,0.00,,BKN250,0.00,VWS V14.01,2013-05-13 12:40:00,
2013-05-13 08:45:00,53.3,41.0,30.13,SW,231,0.0,1.0,63,0.00,,BKN250,0.00,VWS V14.01,2013-05-13 12:45:00,
2013-05-13 08:55:00,54.1,40.1,30.14,SW,231,0.0,1.0,59,0.00,,BKN250,0.00,VWS V14.01,2013-05-13 12:55:00,
2013-05-13 09:00:00,54.4,40.4,30.14,SW,231,1.0,1.0,59,0.00,,SCT250,0.00,VWS V14.01,2013-05-13 13:00:00,
2013-05-13 09:05:00,54.9,40.9,30.14,SW,231,0.0,1.0,59,0.00,,SCT250,0.00,VWS V14.01,2013-05-13 13:05:00,
2013-05-13 09:15:00,55.8,39.4,30.14,NNE,12,0.0,1.0,54,0.00,,SCT250,0.00,VWS V14.01,2013-05-13 13:15:00,
2013-05-13 09:20:00,56.1,38.7,30.14,ENE,78,0.0,1.0,52,0.00,,SCT250,0.00,VWS V14.01,2013-05-13 13:20:00,
2013-05-13 09:25:00,56.4,39.5,30.14,NE,53,0.0,2.0,53,0.00,,SCT250,0.00,VWS V14.01,2013-05-13 13:25:00,
2013-05-13 09:30:00,56.8,39.4,30.14,NE,51,0.0,1.0,52,0.00,,SCT250,0.00,VWS V14.01,2013-05-13 13:30:00,
2013-05-13 09:35:00,57.2,38.8,30.14,NE,41,0.0,1.0,50,0.00,,SCT250,0.00,VWS V14.01,2013-05-13 13:35:00,
2013-05-13 09:40:00,57.4,37.9,30.15,NNW,330,1.0,1.0,48,0.00,,SCT250,0.00,VWS V14.01,2013-05-13 13:40:00,
2013-05-13 09:50:00,57.5,40.0,30.14,North,4,0.0,1.0,52,0.00,,SCT250,0.00,VWS V14.01,2013-05-13 13:50:00,
2013-05-13 10:00:00,58.2,38.1,30.14,ENE,62,0.0,0.0,47,0.00,,SCT250,0.00,VWS V14.01,2013-05-13 14:00:00,
2013-05-13 10:10:00,58.8,38.1,30.14,NNE,15,0.0,2.0,46,0.00,,SCT250,0.00,VWS V14.01,2013-05-13 14:10:00,
2013-05-13 10:15:00,59.1,37.2,30.14,NW,314,0.0,1.0,44,0.00,,SCT250,0.00,VWS V14.01,2013-05-13 14:15:00,
2013-05-13 10:25:00,59.7,35.4,30.14,NW,319,0.0,1.0,40,0.00,,SCT250,0.00,VWS V14.01,2013-05-13 14:25:00,
2013-05-13 10:30:00,59.8,35.5,30.14,NW,313,0.0,1.0,40,0.00,,SCT250,0.00,VWS V14.01,2013-05-13 14:30:00,
2013-05-13 10:35:00,60.3,35.3,30.14,NNE,17,0.0,2.0,39,0.00,,SCT250,0.00,VWS V14.01,2013-05-13 14:35:00,
2013-05-13 10:40:00,60.7,34.3,30.14,NW,316,0.0,3.0,37,0.00,,SCT250,0.00,VWS V14.01,2013-05-13 14:40:00,
2013-05-13 10:45:00,60.8,34.4,30.14,WNW,293,0.0,4.0,37,0.00,,SCT250,0.00,VWS V14.01,2013-05-13 14:45:00,
2013-05-13 10:50:00,60.9,34.5,30.14,WNW,289,0.0,3.0,37,0.00,,SCT250,0.00,VWS V14.01,2013-05-13 14:50:00,
2013-05-13 11:00:00,61.4,34.9,30.14,NW,311,0.0,2.0,37,0.00,,SCT250,0.00,VWS V14.01,2013-05-13 15:00:00,
2013-05-13 11:05:00,61.2,32.6,30.14,WNW,300,1.0,1.0,34,0.00,,SCT250,0.00,VWS V14.01,2013-05-13 15:05:00,
2013-05-13 11:10:00,61.1,36.0,30.14,WSW,241,0.0,1.0,39,0.00,,SCT250,0.00,VWS V14.01,2013-05-13 15:10:00,
2013-05-13 11:20:00,61.7,36.5,30.14,West,270,0.0,6.0,39,0.00,,SCT250,0.00,VWS V14.01,2013-05-13 15:20:00,
2013-05-13 11:25:00,62.3,35.7,30.14,West,270,0.0,8.0,37,0.00,,SCT250,0.00,VWS V14.01,2013-05-13 15:25:00,
2013-05-13 11:30:00,62.1,32.7,30.14,West,278,0.0,3.0,33,0.00,,SCT250,0.00,VWS V14.01,2013-05-13 15:30:00,
2013-05-13 11:35:00,62.0,33.3,30.13,West,280,0.0,1.0,34,0.00,,SCT250,0.00,VWS V14.01,2013-05-13 15:35:00,
2013-05-13 11:40:00,62.2,34.2,30.13,WSW,253,1.0,6.0,35,0.00,,SCT250,0.00,VWS V14.01,2013-05-13 15:40:00,
2013-05-13 11:45:00,62.3,32.9,30.13,SW,233,0.0,6.0,33,0.00,,SCT250,0.00,VWS V14.01,2013-05-13 15:45:00,
2013-05-13 11:50:00,62.3,32.1,30.13,NE,34,1.0,3.0,32,0.00,,SCT250,0.00,VWS V14.01,2013-05-13 15:50:00,
2013-05-13 11:55:00,62.5,34.5,30.13,NW,308,1.0,2.0,35,0.00,,SCT250,0.00,VWS V14.01,2013-05-13 15:55:00,
2013-05-13 12:00:00,62.8,31.7,30.13,NW,308,0.0,1.0,31,0.00,,SCT250,0.00,VWS V14.01,2013-05-13 16:00:00,
2013-05-13 12:05:00,62.8,34.0,30.12,SE,146,0.0,4.0,34,0.00,,SCT200,0.00,VWS V14.01,2013-05-13 16:05:00,
2013-05-13 12:10:00,63.3,32.2,30.13,WNW,302,0.0,2.0,31,0.00,,SCT200,0.00,VWS V14.01,2013-05-13 16:10:00,
2013-05-13 12:15:00,63.4,36.0,30.13,West,259,1.0,5.0,36,0.00,,SCT200,0.00,VWS V14.01,2013-05-13 16:15:00,
2013-05-13 12:20:00,63.5,33.9,30.12,North,7,1.0,4.0,33,0.00,,SCT200,0.00,VWS V14.01,2013-05-13 16:20:00,
2013-05-13 12:25:00,64.1,33.7,30.12,WNW,282,0.0,1.0,32,0.00,,SCT200,0.00,VWS V14.01,2013-05-13 16:25:00,
2013-05-13 12:30:00,64.3,33.8,30.12,WNW,296,1.0,2.0,32,0.00,,SCT200,0.00,VWS V14.01,2013-05-13 16:30:00,
2013-05-13 12:35:00,64.7,38.5,30.12,ESE,110,2.0,3.0,38,0.00,,SCT200,0.00,VWS V14.01,2013-05-13 16:35:00,
2013-05-13 12:40:00,65.4,34.8,30.11,NNE,19,0.0,3.0,32,0.00,,SCT200,0.00,VWS V14.01,2013-05-13 16:40:00,
2013-05-13 12:50:00,65.0,35.2,30.11,WNW,285,4.0,8.0,33,0.00,,SCT200,0.00,VWS V14.01,2013-05-13 16:50:00,
2013-05-13 12:55:00,65.2,33.8,30.11,SSW,202,2.0,4.0,31,0.00,,SCT200,0.00,VWS V14.01,2013-05-13 16:55:00,
2013-05-13 13:00:00,65.9,35.2,30.11,WNW,293,0.0,4.0,32,0.00,,SCT200,0.00,VWS V14.01,2013-05-13 17:00:00,
2013-05-13 13:05:00,66.4,32.3,30.10,SE,126,2.0,7.0,28,0.00,,SCT200,0.00,VWS V14.01,2013-05-13 17:05:00,
2013-05-13 13:10:00,66.0,34.5,30.10,SW,220,5.0,8.0,31,0.00,,SCT200,0.00,VWS V14.01,2013-05-13 17:10:00,
2013-05-13 13:15:00,65.8,33.5,30.10,NW,319,1.0,7.0,30,0.00,,SCT200,0.00,VWS V14.01,2013-05-13 17:15:00,
2013-05-13 13:20:00,66.2,33.0,30.10,West,259,1.0,1.0,29,0.00,,SCT200,0.00,VWS V14.01,2013-05-13 17:20:00,
2013-05-13 13:25:00,66.7,35.1,30.10,NW,304,1.0,6.0,31,0.00,,SCT200,0.00,VWS V14.01,2013-05-13 17:25:00,
2013-05-13 13:30:00,66.6,35.0,30.10,NNE,25,1.0,1.0,31,0.00,,SCT200,0.00,VWS V14.01,2013-05-13 17:30:00,
2013-05-13 13:35:00,66.8,33.5,30.10,SW,231,6.0,7.0,29,0.00,,SCT200,0.00,VWS V14.01,2013-05-13 17:35:00,
2013-05-13 13:40:00,66.8,35.2,30.10,WSW,242,2.0,8.0,31,0.00,,SCT200,0.00,VWS V14.01,2013-05-13 17:40:00,
2013-05-13 13:45:00,67.1,36.3,30.09,SW,231,0.0,4.0,32,0.00,,SCT200,0.00,VWS V14.01,2013-05-13 17:45:00,
2013-05-13 13:50:00,67.5,38.2,30.09,West,259,3.0,6.0,34,0.00,,SCT200,0.00,VWS V14.01,2013-05-13 17:50:00,
2013-05-13 13:55:00,67.3,38.0,30.09,West,263,2.0,5.0,34,0.00,,SCT200,0.00,VWS V14.01,2013-05-13 17:55:00,
2013-05-13 14:00:00,67.9,37.8,30.09,WNW,285,0.0,2.0,33,0.00,,SCT075,0.00,VWS V14.01,2013-05-13 18:00:00,
2013-05-13 14:05:00,66.9,32.8,30.09,West,262,3.0,7.0,28,0.00,,SCT075,0.00,VWS V14.01,2013-05-13 18:05:00,
2013-05-13 14:15:00,67.5,35.8,30.08,WNW,297,0.0,5.0,31,0.00,,SCT075,0.00,VWS V14.01,2013-05-13 18:15:00,
2013-05-13 14:20:00,67.6,34.2,30.08,WNW,289,1.0,2.0,29,0.00,,SCT075,0.00,VWS V14.01,2013-05-13 18:20:00,
2013-05-13 14:25:00,67.3,33.1,30.08,SW,233,2.0,6.0,28,0.00,,SCT075,0.00,VWS V14.01,2013-05-13 18:25:00,
2013-05-13 14:30:00,67.5,35.8,30.08,WSW,255,1.0,8.0,31,0.00,,SCT075,0.00,VWS V14.01,2013-05-13 18:30:00,
2013-05-13 14:35:00,68.1,37.9,30.08,WSW,248,2.0,5.0,33,0.00,,SCT075,0.00,VWS V14.01,2013-05-13 18:35:00,
2013-05-13 14:40:00,67.5,33.3,30.08,WSW,254,1.0,6.0,28,0.00,,SCT075,0.00,VWS V14.01,2013-05-13 18:40:00,
2013-05-13 14:45:00,67.5,35.0,30.08,WNW,297,0.0,3.0,30,0.00,,SCT075,0.00,VWS V14.01,2013-05-13 18:45:00,
2013-05-13 14:50:00,68.0,36.3,30.07,WNW,291,0.0,4.0,31,0.00,,SCT075,0.00,VWS V14.01,2013-05-13 18:50:00,
2013-05-13 14:55:00,67.9,36.2,30.07,West,272,5.0,6.0,31,0.00,,SCT075,0.00,VWS V14.01,2013-05-13 18:55:00,
2013-05-13 15:00:00,67.2,33.9,30.07,WSW,258,1.0,7.0,29,0.00,,SCT075,0.00,VWS V14.01,2013-05-13 19:00:00,
2013-05-13 15:05:00,67.6,37.5,30.07,North,8,1.0,5.0,33,0.00,,SCT075,0.00,VWS V14.01,2013-05-13 19:05:00,
2013-05-13 15:10:00,68.2,34.8,30.06,WNW,288,1.0,1.0,29,0.00,,SCT075,0.00,VWS V14.01,2013-05-13 19:10:00,
2013-05-13 15:15:00,68.0,37.1,30.06,NNE,23,0.0,6.0,32,0.00,,SCT075,0.00,VWS V14.01,2013-05-13 19:15:00,
2013-05-13 15:20:00,68.2,35.6,30.06,West,266,1.0,3.0,30,0.00,,SCT075,0.00,VWS V14.01,2013-05-13 19:20:00,
2013-05-13 15:25:00,68.3,35.7,30.06,WSW,244,3.0,7.0,30,0.00,,SCT075,0.00,VWS V14.01,2013-05-13 19:25:00,
2013-05-13 15:30:00,67.5,33.3,30.06,NW,316,0.0,6.0,28,0.00,,SCT075,0.00,VWS V14.01,2013-05-13 19:30:00,
2013-05-13 15:35:00,67.4,33.2,30.06,WNW,298,0.0,6.0,28,0.00,,SCT075,0.00,VWS V14.01,2013-05-13 19:35:00,
2013-05-13 15:40:00,67.0,33.7,30.06,WSW,238,0.0,3.0,29,0.00,,SCT075,0.00,VWS V14.01,2013-05-13 19:40:00,
2013-05-13 15:50:00,67.1,36.3,30.06,WNW,283,1.0,4.0,32,0.00,,SCT075,0.00,VWS V14.01,2013-05-13 19:50:00,
2013-05-13 15:55:00,67.6,34.2,30.05,WNW,292,0.0,8.0,29,0.00,,SCT075,0.00,VWS V14.01,2013-05-13 19:55:00,
2013-05-13 16:00:00,67.4,35.7,30.05,NW,316,0.0,6.0,31,0.00,,SCT080,0.00,VWS V14.01,2013-05-13 20:00:00,
2013-05-13 16:05:00,66.9,35.3,30.05,NW,321,0.0,2.0,31,0.00,,SCT080,0.00,VWS V14.01,2013-05-13 20:05:00,
2013-05-13 16:10:00,67.3,33.1,30.05,NNE,20,0.0,3.0,28,0.00,,SCT080,0.00,VWS V14.01,2013-05-13 20:10:00,
2013-05-13 16:15:00,66.9,33.6,30.05,NW,319,0.0,3.0,29,0.00,,SCT080,0.00,VWS V14.01,2013-05-13 20:15:00,
2013-05-13 16:20:00,66.5,33.3,30.05,NW,306,0.0,5.0,29,0.00,,SCT080,0.00,VWS V14.01,2013-05-13 20:20:00,
2013-05-13 16:25:00,66.6,32.5,30.04,ESE,117,0.0,1.0,28,0.00,,SCT080,0.00,VWS V14.01,2013-05-13 20:25:00,
2013-05-13 16:30:00,67.6,34.2,30.04,NW,309,1.0,2.0,29,0.00,,SCT080,0.00,VWS V14.01,2013-05-13 20:30:00,
2013-05-13 16:35:00,67.7,34.3,30.04,WNW,289,0.0,2.0,29,0.00,,SCT080,0.00,VWS V14.01,2013-05-13 20:35:00,
2013-05-13 16:40:00,67.5,32.4,30.04,WNW,283,0.0,1.0,27,0.00,,SCT080,0.00,VWS V14.01,2013-05-13 20:40:00,
2013-05-13 16:45:00,67.6,34.2,30.04,WNW,300,0.0,2.0,29,0.00,,SCT080,0.00,VWS V14.01,2013-05-13 20:45:00,
2013-05-13 16:50:00,68.3,34.8,30.04,West,268,3.0,4.0,29,0.00,,SCT080,0.00,VWS V14.01,2013-05-13 20:50:00,
2013-05-13 16:55:00,67.1,32.9,30.04,SW,221,2.0,8.0,28,0.00,,SCT080,0.00,VWS V14.01,2013-05-13 20:55:00,
2013-05-13 17:00:00,67.3,34.8,30.05,WNW,295,0.0,10.0,30,0.00,,SCT080,0.00,VWS V14.01,2013-05-13 21:00:00,
2013-05-13 17:05:00,67.5,31.4,30.04,WNW,297,0.0,3.0,26,0.00,,SCT080,0.00,VWS V14.01,2013-05-13 21:05:00,
2013-05-13 17:10:00,67.7,33.5,30.04,WSW,250,2.0,2.0,28,0.00,,SCT080,0.00,VWS V14.01,2013-05-13 21:10:00,
2013-05-13 17:15:00,67.7,33.5,30.04,NW,312,0.0,6.0,28,0.00,,SCT080,0.00,VWS V14.01,2013-05-13 21:15:00,
2013-05-13 17:20:00,67.2,33.0,30.04,WNW,295,1.0,5.0,28,0.00,,SCT080,0.00,VWS V14.01,2013-05-13 21:20:00,
2013-05-13 17:25:00,66.9,34.5,30.04,South,181,2.0,3.0,30,0.00,,SCT080,0.00,VWS V14.01,2013-05-13 21:25:00,
2013-05-13 17:30:00,66.4,34.9,30.04,West,261,1.0,3.0,31,0.00,,SCT080,0.00,VWS V14.01,2013-05-13 21:30:00,
2013-05-13 17:35:00,65.6,35.0,30.04,WSW,257,0.0,5.0,32,0.00,,SCT080,0.00,VWS V14.01,2013-05-13 21:35:00,
2013-05-13 17:40:00,66.4,33.2,30.04,West,260,0.0,5.0,29,0.00,,SCT080,0.00,VWS V14.01,2013-05-13 21:40:00,
2013-05-13 17:45:00,66.9,35.3,30.04,East,86,1.0,5.0,31,0.00,,SCT080,0.00,VWS V14.01,2013-05-13 21:45:00,
2013-05-13 17:55:00,65.3,32.3,30.04,West,259,0.0,2.0,29,0.00,,SCT080,0.00,VWS V14.01,2013-05-13 21:55:00,
2013-05-13 18:00:00,66.1,33.0,30.04,WSW,252,2.0,2.0,29,0.00,,SCT080,0.00,VWS V14.01,2013-05-13 22:00:00,
2013-05-13 18:05:00,66.4,34.9,30.03,NNW,342,0.0,8.0,31,0.00,,SCT080,0.00,VWS V14.01,2013-05-13 22:05:00,
2013-05-13 18:10:00,67.3,34.0,30.03,West,275,0.0,1.0,29,0.00,,SCT080,0.00,VWS V14.01,2013-05-13 22:10:00,
2013-05-13 18:15:00,68.0,36.3,30.03,West,270,1.0,1.0,31,0.00,,SCT080,0.00,VWS V14.01,2013-05-13 22:15:00,
2013-05-13 18:20:00,67.6,33.4,30.03,WSW,251,1.0,2.0,28,0.00,,SCT080,0.00,VWS V14.01,2013-05-13 22:20:00,
2013-05-13 18:25:00,66.6,35.8,30.03,SW,216,2.0,4.0,32,0.00,,SCT080,0.00,VWS V14.01,2013-05-13 22:25:00,
2013-05-13 18:30:00,66.3,34.8,30.03,SW,230,2.0,3.0,31,0.00,,SCT080,0.00,VWS V14.01,2013-05-13 22:30:00,
2013-05-13 18:35:00,66.3,34.8,30.03,WSW,254,1.0,3.0,31,0.00,,SCT080,0.00,VWS V14.01,2013-05-13 22:35:00,
2013-05-13 18:40:00,66.8,36.8,30.03,West,259,1.0,2.0,33,0.00,,SCT080,0.00,VWS V14.01,2013-05-13 22:40:00,
2013-05-13 18:45:00,67.4,35.7,30.03,SW,225,0.0,1.0,31,0.00,,SCT080,0.00,VWS V14.01,2013-05-13 22:45:00,
2013-05-13 18:50:00,67.0,36.2,30.03,WSW,253,1.0,3.0,32,0.00,,SCT080,0.00,VWS V14.01,2013-05-13 22:50:00,
2013-05-13 18:55:00,65.7,35.1,30.03,West,264,2.0,3.0,32,0.00,,SCT080,0.00,VWS V14.01,2013-05-13 22:55:00,
2013-05-13 19:00:00,65.2,35.4,30.03,ESE,109,0.0,2.0,33,0.00,,SCT065,0.00,VWS V14.01,2013-05-13 23:00:00,
2013-05-13 19:05:00,65.1,34.5,30.03,WSW,253,0.0,2.0,32,0.00,,SCT065,0.00,VWS V14.01,2013-05-13 23:05:00,
2013-05-13 19:10:00,64.7,35.7,30.03,WSW,253,0.0,1.0,34,0.00,,SCT065,0.00,VWS V14.01,2013-05-13 23:10:00,
2013-05-13 19:15:00,64.3,37.5,30.03,WSW,253,0.0,0.0,37,0.00,,SCT065,0.00,VWS V14.01,2013-05-13 23:15:00,
2013-05-13 19:20:00,64.0,35.8,30.04,WSW,253,0.0,0.0,35,0.00,,SCT065,0.00,VWS V14.01,2013-05-13 23:20:00,
2013-05-13 19:25:00,63.4,36.0,30.04,WSW,253,0.0,1.0,36,0.00,,SCT065,0.00,VWS V14.01,2013-05-13 23:25:00,
2013-05-13 19:30:00,62.8,36.8,30.04,WSW,253,0.0,1.0,38,0.00,,SCT065,0.00,VWS V14.01,2013-05-13 23:30:00,
2013-05-13 19:35:00,62.3,35.7,30.04,WSW,253,0.0,0.0,37,0.00,,SCT065,0.00,VWS V14.01,2013-05-13 23:35:00,
2013-05-13 19:40:00,61.9,39.2,30.04,WSW,253,0.0,0.0,43,0.00,,SCT065,0.00,VWS V14.01,2013-05-13 23:40:00,
2013-05-13 19:45:00,61.3,40.4,30.05,WSW,253,0.0,0.0,46,0.00,,SCT065,0.00,VWS V14.01,2013-05-13 23:45:00,
2013-05-13 19:50:00,60.6,41.9,30.05,WSW,253,0.0,0.0,50,0.00,,SCT065,0.00,VWS V14.01,2013-05-13 23:50:00,
2013-05-13 19:55:00,59.8,42.2,30.05,WSW,253,0.0,0.0,52,0.00,,SCT065,0.00,VWS V14.01,2013-05-13 23:55:00,
2013-05-13 20:00:00,59.0,40.9,30.05,WSW,253,0.0,0.0,51,0.00,,SCT085,0.00,VWS V14.01,2013-05-14 00:00:00,
2013-05-13 20:10:00,58.0,42.4,30.06,WSW,253,0.0,0.0,56,0.00,,SCT085,0.00,VWS V14.01,2013-05-14 00:10:00,
2013-05-13 20:15:00,57.6,43.4,30.06,WSW,253,0.0,0.0,59,0.00,,SCT085,0.00,VWS V14.01,2013-05-14 00:15:00,
2013-05-13 20:20:00,57.2,43.0,30.06,WSW,253,0.0,0.0,59,0.00,,SCT085,0.00,VWS V14.01,2013-05-14 00:20:00,
2013-05-13 20:25:00,56.8,43.1,30.07,WSW,253,0.0,0.0,60,0.00,,SCT085,0.00,VWS V14.01,2013-05-14 00:25:00,
2013-05-13 20:30:00,56.4,43.6,30.07,WSW,253,0.0,0.0,62,0.00,,SCT085,0.00,VWS V14.01,2013-05-14 00:30:00,
2013-05-13 20:35:00,56.2,44.6,30.07,WSW,253,0.0,0.0,65,0.00,,SCT085,0.00,VWS V14.01,2013-05-14 00:35:00,
2013-05-13 20:45:00,55.5,44.3,30.08,WSW,253,0.0,0.0,66,0.00,,SCT085,0.00,VWS V14.01,2013-05-14 00:45:00,
2013-05-13 20:55:00,55.0,43.9,30.08,WSW,253,0.0,0.0,66,0.00,,SCT085,0.00,VWS V14.01,2013-05-14 00:55:00,
2013-05-13 21:00:00,54.8,44.8,30.08,WSW,253,0.0,0.0,69,0.00,,SCT090,0.00,VWS V14.01,2013-05-14 01:00:00,
2013-05-13 21:05:00,54.5,45.7,30.09,WSW,253,0.0,0.0,72,0.00,,SCT090,0.00,VWS V14.01,2013-05-14 01:05:00,
2013-05-13 21:10:00,54.2,45.4,30.09,WSW,253,0.0,0.0,72,0.00,,SCT090,0.00,VWS V14.01,2013-05-14 01:10:00,
2013-05-13 21:15:00,54.0,45.5,30.09,WSW,253,0.0,0.0,73,0.00,,SCT090,0.00,VWS V14.01,2013-05-14 01:15:00,
2013-05-13 21:20:00,53.8,45.7,30.09,WSW,253,0.0,0.0,74,0.00,,SCT090,0.00,VWS V14.01,2013-05-14 01:20:00,
2013-05-13 21:25:00,53.6,45.9,30.10,WSW,253,0.0,0.0,75,0.00,,SCT090,0.00,VWS V14.01,2013-05-14 01:25:00,
2013-05-13 21:30:00,53.4,45.7,30.10,WSW,253,0.0,0.0,75,0.00,,SCT090,0.00,VWS V14.01,2013-05-14 01:30:00,
2013-05-13 21:35:00,53.3,45.9,30.10,WSW,253,0.0,0.0,76,0.00,,SCT090,0.00,VWS V14.01,2013-05-14 01:35:00,
2013-05-13 21:40:00,53.1,46.1,30.11,WSW,253,0.0,0.0,77,0.00,,SCT090,0.00,VWS V14.01,2013-05-14 01:40:00,
2013-05-13 21:45:00,52.8,45.8,30.11,WSW,253,0.0,0.0,77,0.00,,SCT090,0.00,VWS V14.01,2013-05-14 01:45:00,
2013-05-13 21:50:00,52.7,46.0,30.11,WSW,253,0.0,0.0,78,0.00,,SCT090,0.00,VWS V14.01,2013-05-14 01:50:00,
2013-05-13 21:55:00,52.5,45.8,30.12,WSW,253,0.0,0.0,78,0.00,,SCT090,0.00,VWS V14.01,2013-05-14 01:55:00,
2013-05-13 22:00:00,52.3,45.7,30.12,WSW,253,0.0,0.0,78,0.00,,SCT095,0.00,VWS V14.01,2013-05-14 02:00:00,
2013-05-13 22:05:00,52.0,45.4,30.12,WSW,253,0.0,0.0,78,0.00,,SCT095,0.00,VWS V14.01,2013-05-14 02:05:00,
2013-05-13 22:10:00,51.7,46.1,30.12,WSW,253,0.0,0.0,81,0.00,,SCT095,0.00,VWS V14.01,2013-05-14 02:10:00,
2013-05-13 22:15:00,51.2,44.6,30.13,WSW,253,0.0,0.0,78,0.00,,SCT095,0.00,VWS V14.01,2013-05-14 02:15:00,
2013-05-13 22:20:00,51.0,45.4,30.13,WSW,253,0.0,0.0,81,0.00,,SCT095,0.00,VWS V14.01,2013-05-14 02:20:00,
2013-05-13 22:25:00,50.6,45.6,30.13,WSW,253,0.0,0.0,83,0.00,,SCT095,0.00,VWS V14.01,2013-05-14 02:25:00,
2013-05-13 22:30:00,50.2,45.6,30.14,WSW,253,0.0,0.0,84,0.00,,SCT095,0.00,VWS V14.01,2013-05-14 02:30:00,
2013-05-13 22:35:00,49.9,45.6,30.14,WSW,253,0.0,0.0,85,0.00,,SCT095,0.00,VWS V14.01,2013-05-14 02:35:00,
2013-05-13 22:40:00,49.7,45.4,30.14,WSW,253,0.0,0.0,85,0.00,,SCT095,0.00,VWS V14.01,2013-05-14 02:40:00,
2013-05-13 22:45:00,49.4,45.4,30.14,WSW,253,0.0,0.0,86,0.00,,SCT095,0.00,VWS V14.01,2013-05-14 02:45:00,
2013-05-13 22:50:00,49.2,45.2,30.15,WSW,253,0.0,0.0,86,0.00,,SCT095,0.00,VWS V14.01,2013-05-14 02:50:00,
2013-05-13 22:55:00,48.9,44.9,30.15,WSW,253,0.0,0.0,86,0.00,,SCT095,0.00,VWS V14.01,2013-05-14 02:55:00,
2013-05-13 23:00:00,48.7,44.7,30.15,WSW,253,0.0,0.0,86,0.00,,SCT110,0.00,VWS V14.01,2013-05-14 03:00:00,
2013-05-13 23:05:00,48.6,44.6,30.16,WSW,253,0.0,0.0,86,0.00,,SCT110,0.00,VWS V14.01,2013-05-14 03:05:00,
2013-05-13 23:10:00,48.6,44.6,30.16,WSW,253,0.0,0.0,86,0.00,,SCT110,0.00,VWS V14.01,2013-05-14 03:10:00,
2013-05-13 23:15:00,48.7,44.4,30.17,WSW,253,0.0,0.0,85,0.00,,SCT110,0.00,VWS V14.01,2013-05-14 03:15:00,
2013-05-13 23:20:00,48.7,45.0,30.17,WSW,253,0.0,0.0,87,0.00,,SCT110,0.00,VWS V14.01,2013-05-14 03:20:00,
2013-05-13 23:25:00,48.8,44.8,30.17,WSW,253,0.0,0.0,86,0.00,,SCT110,0.00,VWS V14.01,2013-05-14 03:25:00,
2013-05-13 23:30:00,48.8,44.5,30.17,WSW,253,0.0,0.0,85,0.00,,SCT110,0.00,VWS V14.01,2013-05-14 03:30:00,
2013-05-13 23:35:00,48.9,45.2,30.17,WSW,253,0.0,0.0,87,0.00,,SCT110,0.00,VWS V14.01,2013-05-14 03:35:00,
2013-05-13 23:40:00,48.9,45.2,30.17,WSW,253,0.0,0.0,87,0.00,,SCT110,0.00,VWS V14.01,2013-05-14 03:40:00,
2013-05-13 23:45:00,48.9,45.5,30.17,WSW,253,0.0,0.0,88,0.00,,SCT110,0.00,VWS V14.01,2013-05-14 03:45:00,
2013-05-13 23:50:00,48.8,44.8,30.18,WSW,253,0.0,0.0,86,0.00,,SCT110,0.00,VWS V14.01,2013-05-14 03:50:00,
2013-05-13 23:55:00,48.9,44.3,30.18,SSE,162,0.0,0.0,84,0.00,,SCT250,0.00,VWS V14.01,2013-05-14 03:55:00,